sensor_id;sensor_type;location;lat;lon;timestamp;temperature;humidity
52867;DHT22;38739;53.324;6.862;2023-03-13T00:01:34;8.30;99.90
52867;DHT22;38739;53.324;6.862;2023-03-13T00:04:03;8.30;99.90
52867;DHT22;38739;53.324;6.862;2023-03-13T00:06:34;8.30;99.90
52867;DHT22;38739;53.324;6.862;2023-03-13T00:09:04;8.30;99.90
52867;DHT22;38739;53.324;6.862;2023-03-13T00:11:31;8.30;99.90
52867;DHT22;38739;53.324;6.862;2023-03-13T00:13:58;8.40;99.90
52867;DHT22;38739;53.324;6.862;2023-03-13T00:16:28;8.40;99.90
52867;DHT22;38739;53.324;6.862;2023-03-13T00:18:55;8.40;99.90
52867;DHT22;38739;53.324;6.862;2023-03-13T00:21:23;8.40;99.90
52867;DHT22;38739;53.324;6.862;2023-03-13T00:23:49;8.40;99.90
52867;DHT22;38739;53.324;6.862;2023-03-13T00:26:18;8.40;99.90
52867;DHT22;38739;53.324;6.862;2023-03-13T00:28:44;8.40;99.90
52867;DHT22;38739;53.324;6.862;2023-03-13T00:31:12;8.40;99.90
52867;DHT22;38739;53.324;6.862;2023-03-13T00:33:43;8.40;99.90
52867;DHT22;38739;53.324;6.862;2023-03-13T00:36:12;8.40;99.90
52867;DHT22;38739;53.324;6.862;2023-03-13T00:38:38;8.40;99.90
52867;DHT22;38739;53.324;6.862;2023-03-13T00:41:06;8.40;99.90
52867;DHT22;38739;53.324;6.862;2023-03-13T00:43:33;8.40;99.90
52867;DHT22;38739;53.324;6.862;2023-03-13T00:46:00;8.40;99.90
52867;DHT22;38739;53.324;6.862;2023-03-13T00:48:26;8.40;99.90
52867;DHT22;38739;53.324;6.862;2023-03-13T00:50:52;8.40;99.90
52867;DHT22;38739;53.324;6.862;2023-03-13T00:53:18;8.40;99.90
52867;DHT22;38739;53.324;6.862;2023-03-13T00:56:00;8.40;99.90
52867;DHT22;38739;53.324;6.862;2023-03-13T00:58:29;8.40;99.90
52867;DHT22;38739;53.324;6.862;2023-03-13T01:00:55;8.40;99.90
52867;DHT22;38739;53.324;6.862;2023-03-13T01:03:23;8.40;99.90
52867;DHT22;38739;53.324;6.862;2023-03-13T01:06:00;8.40;99.90
52867;DHT22;38739;53.324;6.862;2023-03-13T01:08:26;8.40;99.90
52867;DHT22;38739;53.324;6.862;2023-03-13T01:11:11;8.40;99.90
52867;DHT22;38739;53.324;6.862;2023-03-13T01:13:40;8.40;99.90
52867;DHT22;38739;53.324;6.862;2023-03-13T01:16:12;8.40;99.90
52867;DHT22;38739;53.324;6.862;2023-03-13T01:18:40;8.40;99.90
52867;DHT22;38739;53.324;6.862;2023-03-13T01:21:11;8.50;99.90
52867;DHT22;38739;53.324;6.862;2023-03-13T01:23:37;8.40;99.90
52867;DHT22;38739;53.324;6.862;2023-03-13T01:26:07;8.40;99.90
52867;DHT22;38739;53.324;6.862;2023-03-13T01:28:33;8.40;99.90
52867;DHT22;38739;53.324;6.862;2023-03-13T01:31:00;8.50;99.90
52867;DHT22;38739;53.324;6.862;2023-03-13T01:33:34;8.40;99.90
52867;DHT22;38739;53.324;6.862;2023-03-13T01:36:01;8.40;99.90
52867;DHT22;38739;53.324;6.862;2023-03-13T01:38:27;8.40;99.90
52867;DHT22;38739;53.324;6.862;2023-03-13T01:40:52;8.40;99.90
52867;DHT22;38739;53.324;6.862;2023-03-13T01:43:21;8.40;99.90
52867;DHT22;38739;53.324;6.862;2023-03-13T01:48:47;8.50;99.90
52867;DHT22;38739;53.324;6.862;2023-03-13T01:53:44;8.40;99.90
52867;DHT22;38739;53.324;6.862;2023-03-13T01:56:25;8.40;99.90
52867;DHT22;38739;53.324;6.862;2023-03-13T01:58:55;8.40;99.90
52867;DHT22;38739;53.324;6.862;2023-03-13T02:01:22;8.40;99.90
52867;DHT22;38739;53.324;6.862;2023-03-13T02:03:49;8.40;99.90
52867;DHT22;38739;53.324;6.862;2023-03-13T02:06:18;8.40;99.90
52867;DHT22;38739;53.324;6.862;2023-03-13T02:08:50;8.40;99.90
52867;DHT22;38739;53.324;6.862;2023-03-13T02:11:51;8.40;99.90
52867;DHT22;38739;53.324;6.862;2023-03-13T02:14:19;8.40;99.90
52867;DHT22;38739;53.324;6.862;2023-03-13T02:16:47;8.40;99.90
52867;DHT22;38739;53.324;6.862;2023-03-13T02:22:29;8.40;99.90
52867;DHT22;38739;53.324;6.862;2023-03-13T02:28:11;8.40;99.90
52867;DHT22;38739;53.324;6.862;2023-03-13T02:30:39;8.50;99.90
52867;DHT22;38739;53.324;6.862;2023-03-13T02:33:07;8.40;99.90
52867;DHT22;38739;53.324;6.862;2023-03-13T02:35:36;8.40;99.90
52867;DHT22;38739;53.324;6.862;2023-03-13T02:38:07;8.50;99.90
52867;DHT22;38739;53.324;6.862;2023-03-13T02:40:37;8.50;99.90
52867;DHT22;38739;53.324;6.862;2023-03-13T02:43:10;8.50;99.90
52867;DHT22;38739;53.324;6.862;2023-03-13T02:45:36;8.50;99.90
52867;DHT22;38739;53.324;6.862;2023-03-13T02:48:02;8.50;99.90
52867;DHT22;38739;53.324;6.862;2023-03-13T02:50:30;8.40;99.90
52867;DHT22;38739;53.324;6.862;2023-03-13T02:53:03;8.40;99.90
52867;DHT22;38739;53.324;6.862;2023-03-13T02:55:40;8.40;99.90
52867;DHT22;38739;53.324;6.862;2023-03-13T02:58:07;8.40;99.90
52867;DHT22;38739;53.324;6.862;2023-03-13T03:00:33;8.40;99.90
52867;DHT22;38739;53.324;6.862;2023-03-13T03:03:01;8.40;99.90
52867;DHT22;38739;53.324;6.862;2023-03-13T03:05:27;8.40;99.90
52867;DHT22;38739;53.324;6.862;2023-03-13T03:07:53;8.40;99.90
52867;DHT22;38739;53.324;6.862;2023-03-13T03:10:19;8.30;99.90
52867;DHT22;38739;53.324;6.862;2023-03-13T03:12:44;8.40;99.90
52867;DHT22;38739;53.324;6.862;2023-03-13T03:15:10;8.40;99.90
52867;DHT22;38739;53.324;6.862;2023-03-13T03:17:38;8.40;99.90
52867;DHT22;38739;53.324;6.862;2023-03-13T03:20:03;8.40;99.90
52867;DHT22;38739;53.324;6.862;2023-03-13T03:22:36;8.50;99.90
52867;DHT22;38739;53.324;6.862;2023-03-13T03:25:03;8.50;99.90
52867;DHT22;38739;53.324;6.862;2023-03-13T03:27:31;8.50;99.90
52867;DHT22;38739;53.324;6.862;2023-03-13T03:29:56;8.60;99.90
52867;DHT22;38739;53.324;6.862;2023-03-13T03:32:22;8.60;99.90
52867;DHT22;38739;53.324;6.862;2023-03-13T03:34:48;8.60;99.90
52867;DHT22;38739;53.324;6.862;2023-03-13T03:37:13;8.60;99.90
52867;DHT22;38739;53.324;6.862;2023-03-13T03:39:39;8.70;99.90
52867;DHT22;38739;53.324;6.862;2023-03-13T03:42:05;8.80;99.90
52867;DHT22;38739;53.324;6.862;2023-03-13T03:44:31;8.80;99.90
52867;DHT22;38739;53.324;6.862;2023-03-13T03:46:56;8.80;99.90
52867;DHT22;38739;53.324;6.862;2023-03-13T03:49:22;8.80;99.90
52867;DHT22;38739;53.324;6.862;2023-03-13T03:51:48;8.80;99.90
52867;DHT22;38739;53.324;6.862;2023-03-13T03:54:14;8.90;99.90
52867;DHT22;38739;53.324;6.862;2023-03-13T03:56:39;8.90;99.90
52867;DHT22;38739;53.324;6.862;2023-03-13T03:59:08;8.90;99.90
52867;DHT22;38739;53.324;6.862;2023-03-13T04:01:33;8.90;99.90
52867;DHT22;38739;53.324;6.862;2023-03-13T04:03:59;8.90;99.90
52867;DHT22;38739;53.324;6.862;2023-03-13T04:06:27;8.90;99.90
52867;DHT22;38739;53.324;6.862;2023-03-13T04:08:53;8.90;99.90
52867;DHT22;38739;53.324;6.862;2023-03-13T04:11:19;9.00;99.90
52867;DHT22;38739;53.324;6.862;2023-03-13T04:13:46;9.00;99.90
52867;DHT22;38739;53.324;6.862;2023-03-13T04:16:11;9.00;99.90
52867;DHT22;38739;53.324;6.862;2023-03-13T04:18:37;9.10;99.90
52867;DHT22;38739;53.324;6.862;2023-03-13T04:21:04;9.00;99.90
52867;DHT22;38739;53.324;6.862;2023-03-13T04:23:30;9.10;99.90
52867;DHT22;38739;53.324;6.862;2023-03-13T04:25:56;9.10;99.90
52867;DHT22;38739;53.324;6.862;2023-03-13T04:28:22;9.10;99.90
52867;DHT22;38739;53.324;6.862;2023-03-13T04:30:47;9.10;99.90
52867;DHT22;38739;53.324;6.862;2023-03-13T04:33:13;9.10;99.90
52867;DHT22;38739;53.324;6.862;2023-03-13T04:35:39;9.10;99.90
52867;DHT22;38739;53.324;6.862;2023-03-13T04:38:05;9.10;99.90
52867;DHT22;38739;53.324;6.862;2023-03-13T04:40:30;9.20;99.90
52867;DHT22;38739;53.324;6.862;2023-03-13T04:42:59;9.30;99.90
52867;DHT22;38739;53.324;6.862;2023-03-13T04:45:27;9.30;99.90
52867;DHT22;38739;53.324;6.862;2023-03-13T04:47:53;9.30;99.90
52867;DHT22;38739;53.324;6.862;2023-03-13T04:50:19;9.40;99.90
52867;DHT22;38739;53.324;6.862;2023-03-13T04:52:44;9.40;99.90
52867;DHT22;38739;53.324;6.862;2023-03-13T04:55:10;9.40;99.90
52867;DHT22;38739;53.324;6.862;2023-03-13T04:57:36;9.40;99.90
52867;DHT22;38739;53.324;6.862;2023-03-13T05:00:01;9.50;99.90
52867;DHT22;38739;53.324;6.862;2023-03-13T05:02:29;9.50;99.90
52867;DHT22;38739;53.324;6.862;2023-03-13T05:04:55;9.50;99.90
52867;DHT22;38739;53.324;6.862;2023-03-13T05:07:23;9.60;99.90
52867;DHT22;38739;53.324;6.862;2023-03-13T05:09:49;9.70;99.90
52867;DHT22;38739;53.324;6.862;2023-03-13T05:12:14;9.70;99.90
52867;DHT22;38739;53.324;6.862;2023-03-13T05:14:42;9.70;99.90
52867;DHT22;38739;53.324;6.862;2023-03-13T05:17:08;9.80;99.90
52867;DHT22;38739;53.324;6.862;2023-03-13T05:19:35;9.80;99.90
52867;DHT22;38739;53.324;6.862;2023-03-13T05:22:03;9.90;99.90
52867;DHT22;38739;53.324;6.862;2023-03-13T05:24:29;9.90;99.90
52867;DHT22;38739;53.324;6.862;2023-03-13T05:26:55;9.90;99.90
52867;DHT22;38739;53.324;6.862;2023-03-13T05:29:20;10.00;99.90
52867;DHT22;38739;53.324;6.862;2023-03-13T05:31:46;10.00;99.90
52867;DHT22;38739;53.324;6.862;2023-03-13T05:34:12;10.00;99.90
52867;DHT22;38739;53.324;6.862;2023-03-13T05:36:38;10.10;99.90
52867;DHT22;38739;53.324;6.862;2023-03-13T05:39:03;10.20;99.90
52867;DHT22;38739;53.324;6.862;2023-03-13T05:41:29;10.30;99.90
52867;DHT22;38739;53.324;6.862;2023-03-13T05:43:55;10.40;99.90
52867;DHT22;38739;53.324;6.862;2023-03-13T05:46:20;10.40;99.90
52867;DHT22;38739;53.324;6.862;2023-03-13T05:48:46;10.40;99.90
52867;DHT22;38739;53.324;6.862;2023-03-13T05:51:12;10.50;99.90
52867;DHT22;38739;53.324;6.862;2023-03-13T05:53:40;10.70;99.90
52867;DHT22;38739;53.324;6.862;2023-03-13T05:56:06;10.80;99.90
52867;DHT22;38739;53.324;6.862;2023-03-13T05:58:32;10.80;99.90
52867;DHT22;38739;53.324;6.862;2023-03-13T06:00:57;10.90;99.90
52867;DHT22;38739;53.324;6.862;2023-03-13T06:03:23;10.90;99.90
52867;DHT22;38739;53.324;6.862;2023-03-13T06:05:48;10.90;99.90
52867;DHT22;38739;53.324;6.862;2023-03-13T06:08:17;10.90;99.90
52867;DHT22;38739;53.324;6.862;2023-03-13T06:10:43;11.00;99.90
52867;DHT22;38739;53.324;6.862;2023-03-13T06:13:11;11.00;99.90
52867;DHT22;38739;53.324;6.862;2023-03-13T06:15:37;11.00;99.90
52867;DHT22;38739;53.324;6.862;2023-03-13T06:18:02;11.10;99.90
52867;DHT22;38739;53.324;6.862;2023-03-13T06:20:28;11.10;99.90
52867;DHT22;38739;53.324;6.862;2023-03-13T06:22:54;11.10;99.90
52867;DHT22;38739;53.324;6.862;2023-03-13T06:25:19;11.10;99.90
52867;DHT22;38739;53.324;6.862;2023-03-13T06:27:45;11.10;99.90
52867;DHT22;38739;53.324;6.862;2023-03-13T06:30:11;11.10;99.90
52867;DHT22;38739;53.324;6.862;2023-03-13T06:32:37;11.10;99.90
52867;DHT22;38739;53.324;6.862;2023-03-13T06:35:03;11.10;99.90
52867;DHT22;38739;53.324;6.862;2023-03-13T06:37:29;11.10;99.90
52867;DHT22;38739;53.324;6.862;2023-03-13T06:39:54;11.10;99.90
52867;DHT22;38739;53.324;6.862;2023-03-13T06:42:20;11.10;99.90
52867;DHT22;38739;53.324;6.862;2023-03-13T06:44:46;11.10;99.90
52867;DHT22;38739;53.324;6.862;2023-03-13T06:47:11;11.00;99.90
52867;DHT22;38739;53.324;6.862;2023-03-13T06:49:37;11.00;99.90
52867;DHT22;38739;53.324;6.862;2023-03-13T06:52:03;11.00;99.90
52867;DHT22;38739;53.324;6.862;2023-03-13T06:54:29;11.10;99.90
52867;DHT22;38739;53.324;6.862;2023-03-13T06:56:54;11.20;99.90
52867;DHT22;38739;53.324;6.862;2023-03-13T06:59:20;11.10;99.90
52867;DHT22;38739;53.324;6.862;2023-03-13T07:01:46;11.20;99.90
52867;DHT22;38739;53.324;6.862;2023-03-13T07:04:12;11.20;99.90
52867;DHT22;38739;53.324;6.862;2023-03-13T07:06:38;11.20;99.90
52867;DHT22;38739;53.324;6.862;2023-03-13T07:09:06;11.20;99.90
52867;DHT22;38739;53.324;6.862;2023-03-13T07:11:32;11.30;99.90
52867;DHT22;38739;53.324;6.862;2023-03-13T07:14:00;11.20;99.90
52867;DHT22;38739;53.324;6.862;2023-03-13T07:16:26;11.20;99.90
52867;DHT22;38739;53.324;6.862;2023-03-13T07:18:52;11.30;99.90
52867;DHT22;38739;53.324;6.862;2023-03-13T07:21:18;11.30;99.90
52867;DHT22;38739;53.324;6.862;2023-03-13T07:23:43;11.40;99.90
52867;DHT22;38739;53.324;6.862;2023-03-13T07:26:14;11.40;99.90
52867;DHT22;38739;53.324;6.862;2023-03-13T07:28:41;11.40;99.90
52867;DHT22;38739;53.324;6.862;2023-03-13T07:31:18;11.40;99.90
52867;DHT22;38739;53.324;6.862;2023-03-13T07:33:44;11.40;99.90
52867;DHT22;38739;53.324;6.862;2023-03-13T07:36:16;11.50;99.90
52867;DHT22;38739;53.324;6.862;2023-03-13T07:38:42;11.50;99.90
52867;DHT22;38739;53.324;6.862;2023-03-13T07:41:11;11.40;99.90
52867;DHT22;38739;53.324;6.862;2023-03-13T07:43:37;11.50;99.90
52867;DHT22;38739;53.324;6.862;2023-03-13T07:46:05;11.50;99.90
52867;DHT22;38739;53.324;6.862;2023-03-13T07:48:33;11.50;99.90
52867;DHT22;38739;53.324;6.862;2023-03-13T07:50:59;11.50;99.90
52867;DHT22;38739;53.324;6.862;2023-03-13T07:53:25;11.50;99.90
52867;DHT22;38739;53.324;6.862;2023-03-13T07:55:59;11.50;99.90
52867;DHT22;38739;53.324;6.862;2023-03-13T07:58:29;11.50;99.90
52867;DHT22;38739;53.324;6.862;2023-03-13T08:00:55;11.50;99.90
52867;DHT22;38739;53.324;6.862;2023-03-13T08:03:22;11.50;99.90
52867;DHT22;38739;53.324;6.862;2023-03-13T08:06:00;11.50;99.90
52867;DHT22;38739;53.324;6.862;2023-03-13T08:08:26;11.50;99.90
52867;DHT22;38739;53.324;6.862;2023-03-13T08:10:52;11.40;99.90
52867;DHT22;38739;53.324;6.862;2023-03-13T08:13:18;11.40;99.90
52867;DHT22;38739;53.324;6.862;2023-03-13T08:15:44;11.40;99.90
52867;DHT22;38739;53.324;6.862;2023-03-13T08:18:09;11.50;99.90
52867;DHT22;38739;53.324;6.862;2023-03-13T08:20:35;11.50;99.90
52867;DHT22;38739;53.324;6.862;2023-03-13T08:23:01;11.50;99.90
52867;DHT22;38739;53.324;6.862;2023-03-13T08:25:26;11.50;99.90
52867;DHT22;38739;53.324;6.862;2023-03-13T08:27:52;11.40;99.90
52867;DHT22;38739;53.324;6.862;2023-03-13T08:30:22;11.50;99.90
52867;DHT22;38739;53.324;6.862;2023-03-13T08:32:47;11.50;99.90
52867;DHT22;38739;53.324;6.862;2023-03-13T08:35:13;11.50;99.90
52867;DHT22;38739;53.324;6.862;2023-03-13T08:37:39;11.60;99.90
52867;DHT22;38739;53.324;6.862;2023-03-13T08:40:05;11.70;99.90
52867;DHT22;38739;53.324;6.862;2023-03-13T08:42:36;11.90;99.90
52867;DHT22;38739;53.324;6.862;2023-03-13T08:45:05;12.10;99.90
52867;DHT22;38739;53.324;6.862;2023-03-13T08:47:31;12.30;99.90
52867;DHT22;38739;53.324;6.862;2023-03-13T08:49:57;12.40;99.90
52867;DHT22;38739;53.324;6.862;2023-03-13T08:52:23;12.50;99.90
52867;DHT22;38739;53.324;6.862;2023-03-13T08:54:49;12.70;99.90
52867;DHT22;38739;53.324;6.862;2023-03-13T08:57:41;12.90;99.90
52867;DHT22;38739;53.324;6.862;2023-03-13T09:00:17;13.10;99.90
52867;DHT22;38739;53.324;6.862;2023-03-13T09:02:43;13.30;99.90
52867;DHT22;38739;53.324;6.862;2023-03-13T09:05:11;13.50;99.90
52867;DHT22;38739;53.324;6.862;2023-03-13T09:07:40;13.60;99.90
52867;DHT22;38739;53.324;6.862;2023-03-13T09:10:06;13.80;99.90
52867;DHT22;38739;53.324;6.862;2023-03-13T09:12:32;14.10;99.90
52867;DHT22;38739;53.324;6.862;2023-03-13T09:14:57;14.10;99.90
52867;DHT22;38739;53.324;6.862;2023-03-13T09:17:23;14.20;99.90
52867;DHT22;38739;53.324;6.862;2023-03-13T09:19:52;14.50;99.90
52867;DHT22;38739;53.324;6.862;2023-03-13T09:22:17;14.60;99.90
52867;DHT22;38739;53.324;6.862;2023-03-13T09:24:50;14.80;99.90
52867;DHT22;38739;53.324;6.862;2023-03-13T09:27:18;14.80;99.90
52867;DHT22;38739;53.324;6.862;2023-03-13T09:29:44;14.30;99.90
52867;DHT22;38739;53.324;6.862;2023-03-13T09:32:15;14.00;99.90
52867;DHT22;38739;53.324;6.862;2023-03-13T09:34:41;13.80;99.90
52867;DHT22;38739;53.324;6.862;2023-03-13T09:37:09;13.60;99.90
52867;DHT22;38739;53.324;6.862;2023-03-13T09:39:37;13.50;99.90
52867;DHT22;38739;53.324;6.862;2023-03-13T09:42:11;13.50;99.90
52867;DHT22;38739;53.324;6.862;2023-03-13T09:45:08;13.50;99.90
52867;DHT22;38739;53.324;6.862;2023-03-13T09:47:47;13.30;99.90
52867;DHT22;38739;53.324;6.862;2023-03-13T09:50:21;13.20;99.90
52867;DHT22;38739;53.324;6.862;2023-03-13T09:52:54;13.10;99.90
52867;DHT22;38739;53.324;6.862;2023-03-13T09:55:30;13.00;99.90
52867;DHT22;38739;53.324;6.862;2023-03-13T09:58:10;12.90;99.90
52867;DHT22;38739;53.324;6.862;2023-03-13T10:00:39;12.90;99.90
52867;DHT22;38739;53.324;6.862;2023-03-13T10:03:28;12.90;99.90
52867;DHT22;38739;53.324;6.862;2023-03-13T10:06:01;13.00;99.90
52867;DHT22;38739;53.324;6.862;2023-03-13T10:08:33;13.00;99.90
52867;DHT22;38739;53.324;6.862;2023-03-13T10:11:37;13.10;99.90
52867;DHT22;38739;53.324;6.862;2023-03-13T10:14:16;13.10;99.90
52867;DHT22;38739;53.324;6.862;2023-03-13T10:19:47;13.80;99.90
52867;DHT22;38739;53.324;6.862;2023-03-13T10:22:24;14.50;99.90
52867;DHT22;38739;53.324;6.862;2023-03-13T10:27:43;15.80;99.90
52867;DHT22;38739;53.324;6.862;2023-03-13T10:30:26;16.20;99.90
52867;DHT22;38739;53.324;6.862;2023-03-13T10:33:16;16.50;99.90
52867;DHT22;38739;53.324;6.862;2023-03-13T10:35:43;16.50;99.90
52867;DHT22;38739;53.324;6.862;2023-03-13T10:38:27;16.40;99.90
52867;DHT22;38739;53.324;6.862;2023-03-13T10:41:03;16.30;99.90
52867;DHT22;38739;53.324;6.862;2023-03-13T10:43:31;15.90;99.90
52867;DHT22;38739;53.324;6.862;2023-03-13T10:45:57;15.80;99.90
52867;DHT22;38739;53.324;6.862;2023-03-13T10:48:30;15.70;99.90
52867;DHT22;38739;53.324;6.862;2023-03-13T10:51:00;15.70;99.90
52867;DHT22;38739;53.324;6.862;2023-03-13T10:58:43;16.00;99.90
52867;DHT22;38739;53.324;6.862;2023-03-13T11:03:52;15.90;99.90
52867;DHT22;38739;53.324;6.862;2023-03-13T11:06:39;15.80;99.90
52867;DHT22;38739;53.324;6.862;2023-03-13T11:09:15;15.30;99.90
52867;DHT22;38739;53.324;6.862;2023-03-13T11:14:21;15.00;99.90
52867;DHT22;38739;53.324;6.862;2023-03-13T11:27:29;14.80;99.90
52867;DHT22;38739;53.324;6.862;2023-03-13T11:33:07;15.00;99.90
52867;DHT22;38739;53.324;6.862;2023-03-13T11:35:54;15.30;99.90
52867;DHT22;38739;53.324;6.862;2023-03-13T11:38:31;15.30;99.90
52867;DHT22;38739;53.324;6.862;2023-03-13T11:43:49;14.90;99.90
52867;DHT22;38739;53.324;6.862;2023-03-13T11:57:17;14.50;99.90
52867;DHT22;38739;53.324;6.862;2023-03-13T12:03:00;14.40;99.90
52867;DHT22;38739;53.324;6.862;2023-03-13T12:05:43;14.30;99.90
52867;DHT22;38739;53.324;6.862;2023-03-13T12:08:17;14.40;99.90
52867;DHT22;38739;53.324;6.862;2023-03-13T12:11:05;14.60;99.90
52867;DHT22;38739;53.324;6.862;2023-03-13T12:13:43;14.70;99.90
52867;DHT22;38739;53.324;6.862;2023-03-13T12:16:19;14.60;99.90
52867;DHT22;38739;53.324;6.862;2023-03-13T12:18:48;14.50;99.90
52867;DHT22;38739;53.324;6.862;2023-03-13T12:21:27;14.80;99.90
52867;DHT22;38739;53.324;6.862;2023-03-13T12:31:52;15.00;99.90
52867;DHT22;38739;53.324;6.862;2023-03-13T12:34:26;14.90;99.90
52867;DHT22;38739;53.324;6.862;2023-03-13T12:37:02;15.00;99.90
52867;DHT22;38739;53.324;6.862;2023-03-13T12:39:48;15.30;99.90
52867;DHT22;38739;53.324;6.862;2023-03-13T12:45:17;15.90;99.90
52867;DHT22;38739;53.324;6.862;2023-03-13T13:01:41;17.90;99.90
52867;DHT22;38739;53.324;6.862;2023-03-13T13:04:31;18.20;98.50
52867;DHT22;38739;53.324;6.862;2023-03-13T13:09:30;18.30;98.60
52867;DHT22;38739;53.324;6.862;2023-03-13T13:24:54;17.10;96.70
52867;DHT22;38739;53.324;6.862;2023-03-13T13:32:54;16.10;98.10
52867;DHT22;38739;53.324;6.862;2023-03-13T13:35:31;16.20;97.90
52867;DHT22;38739;53.324;6.862;2023-03-13T13:41:01;15.60;98.50
52867;DHT22;38739;53.324;6.862;2023-03-13T13:43:42;15.60;99.30
52867;DHT22;38739;53.324;6.862;2023-03-13T13:46:29;15.50;99.10
52867;DHT22;38739;53.324;6.862;2023-03-13T13:49:17;15.80;99.90
52867;DHT22;38739;53.324;6.862;2023-03-13T13:57:19;17.00;95.40
52867;DHT22;38739;53.324;6.862;2023-03-13T14:00:15;16.70;96.70
52867;DHT22;38739;53.324;6.862;2023-03-13T14:02:55;16.90;96.30
52867;DHT22;38739;53.324;6.862;2023-03-13T14:05:26;16.90;95.70
52867;DHT22;38739;53.324;6.862;2023-03-13T14:07:59;16.90;96.20
52867;DHT22;38739;53.324;6.862;2023-03-13T14:10:28;16.60;96.60
52867;DHT22;38739;53.324;6.862;2023-03-13T14:12:57;16.60;97.50
52867;DHT22;38739;53.324;6.862;2023-03-13T14:15:31;16.50;97.40
52867;DHT22;38739;53.324;6.862;2023-03-13T14:20:53;16.10;96.50
52867;DHT22;38739;53.324;6.862;2023-03-13T14:25:57;16.10;97.20
52867;DHT22;38739;53.324;6.862;2023-03-13T14:28:27;16.10;96.80
52867;DHT22;38739;53.324;6.862;2023-03-13T14:30:57;15.90;97.00
52867;DHT22;38739;53.324;6.862;2023-03-13T14:33:24;15.70;97.90
52867;DHT22;38739;53.324;6.862;2023-03-13T14:35:53;15.60;98.10
52867;DHT22;38739;53.324;6.862;2023-03-13T14:38:22;15.50;97.80
52867;DHT22;38739;53.324;6.862;2023-03-13T14:40:49;15.40;98.30
52867;DHT22;38739;53.324;6.862;2023-03-13T14:43:39;15.30;98.50
52867;DHT22;38739;53.324;6.862;2023-03-13T14:48:45;14.90;99.00
52867;DHT22;38739;53.324;6.862;2023-03-13T14:51:24;14.90;98.10
52867;DHT22;38739;53.324;6.862;2023-03-13T14:54:01;15.00;98.60
52867;DHT22;38739;53.324;6.862;2023-03-13T14:56:38;15.30;99.60
52867;DHT22;38739;53.324;6.862;2023-03-13T14:59:18;15.50;99.40
52867;DHT22;38739;53.324;6.862;2023-03-13T15:04:59;15.80;97.60
52867;DHT22;38739;53.324;6.862;2023-03-13T15:10:36;16.40;96.30
52867;DHT22;38739;53.324;6.862;2023-03-13T15:15:59;16.80;95.30
52867;DHT22;38739;53.324;6.862;2023-03-13T15:18:28;16.60;95.00
52867;DHT22;38739;53.324;6.862;2023-03-13T15:21:16;16.60;95.30
52867;DHT22;38739;53.324;6.862;2023-03-13T15:23:55;16.60;95.50
52867;DHT22;38739;53.324;6.862;2023-03-13T15:26:28;16.50;95.00
52867;DHT22;38739;53.324;6.862;2023-03-13T15:28:54;16.40;94.90
52867;DHT22;38739;53.324;6.862;2023-03-13T15:31:25;16.30;95.20
52867;DHT22;38739;53.324;6.862;2023-03-13T15:33:59;15.80;96.20
52867;DHT22;38739;53.324;6.862;2023-03-13T15:36:26;15.20;97.30
52867;DHT22;38739;53.324;6.862;2023-03-13T15:38:52;15.00;98.50
52867;DHT22;38739;53.324;6.862;2023-03-13T15:41:19;14.60;98.70
52867;DHT22;38739;53.324;6.862;2023-03-13T15:43:45;14.40;99.90
52867;DHT22;38739;53.324;6.862;2023-03-13T15:46:17;14.20;99.90
52867;DHT22;38739;53.324;6.862;2023-03-13T15:48:44;14.10;99.90
52867;DHT22;38739;53.324;6.862;2023-03-13T15:51:12;14.00;99.90
52867;DHT22;38739;53.324;6.862;2023-03-13T15:53:39;14.00;99.90
52867;DHT22;38739;53.324;6.862;2023-03-13T15:56:16;13.90;99.90
52867;DHT22;38739;53.324;6.862;2023-03-13T15:58:43;13.70;99.90
52867;DHT22;38739;53.324;6.862;2023-03-13T16:01:11;13.70;99.90
52867;DHT22;38739;53.324;6.862;2023-03-13T16:03:40;13.70;99.90
52867;DHT22;38739;53.324;6.862;2023-03-13T16:06:16;13.60;99.90
52867;DHT22;38739;53.324;6.862;2023-03-13T16:08:43;13.70;99.90
52867;DHT22;38739;53.324;6.862;2023-03-13T16:11:12;13.60;99.90
52867;DHT22;38739;53.324;6.862;2023-03-13T16:13:38;13.60;99.90
52867;DHT22;38739;53.324;6.862;2023-03-13T16:16:18;13.50;99.90
52867;DHT22;38739;53.324;6.862;2023-03-13T16:18:46;13.40;99.90
52867;DHT22;38739;53.324;6.862;2023-03-13T16:21:21;13.40;99.90
52867;DHT22;38739;53.324;6.862;2023-03-13T16:23:47;13.30;99.90
52867;DHT22;38739;53.324;6.862;2023-03-13T16:26:23;13.30;99.90
52867;DHT22;38739;53.324;6.862;2023-03-13T16:28:49;13.20;99.90
52867;DHT22;38739;53.324;6.862;2023-03-13T16:31:27;13.20;99.90
52867;DHT22;38739;53.324;6.862;2023-03-13T16:33:54;13.10;99.90
52867;DHT22;38739;53.324;6.862;2023-03-13T16:36:25;13.10;99.90
52867;DHT22;38739;53.324;6.862;2023-03-13T16:38:54;13.00;99.90
52867;DHT22;38739;53.324;6.862;2023-03-13T16:41:22;13.00;99.90
52867;DHT22;38739;53.324;6.862;2023-03-13T16:43:52;13.00;99.90
52867;DHT22;38739;53.324;6.862;2023-03-13T16:46:26;12.90;99.90
52867;DHT22;38739;53.324;6.862;2023-03-13T16:48:54;12.90;99.90
52867;DHT22;38739;53.324;6.862;2023-03-13T16:51:24;12.80;99.90
52867;DHT22;38739;53.324;6.862;2023-03-13T16:53:51;12.80;99.90
52867;DHT22;38739;53.324;6.862;2023-03-13T16:56:31;12.70;99.90
52867;DHT22;38739;53.324;6.862;2023-03-13T16:59:00;12.70;99.90
52867;DHT22;38739;53.324;6.862;2023-03-13T17:01:30;12.60;99.90
52867;DHT22;38739;53.324;6.862;2023-03-13T17:03:57;12.60;99.90
52867;DHT22;38739;53.324;6.862;2023-03-13T17:06:27;12.60;99.90
52867;DHT22;38739;53.324;6.862;2023-03-13T17:08:54;12.50;99.90
52867;DHT22;38739;53.324;6.862;2023-03-13T17:11:21;12.50;99.90
52867;DHT22;38739;53.324;6.862;2023-03-13T17:13:49;12.40;99.90
52867;DHT22;38739;53.324;6.862;2023-03-13T17:16:29;12.40;99.90
52867;DHT22;38739;53.324;6.862;2023-03-13T17:18:57;12.40;99.90
52867;DHT22;38739;53.324;6.862;2023-03-13T17:21:25;12.30;99.90
52867;DHT22;38739;53.324;6.862;2023-03-13T17:23:53;12.30;99.90
52867;DHT22;38739;53.324;6.862;2023-03-13T17:26:36;12.20;99.90
52867;DHT22;38739;53.324;6.862;2023-03-13T17:29:04;12.20;99.90
52867;DHT22;38739;53.324;6.862;2023-03-13T17:31:33;12.20;99.90
52867;DHT22;38739;53.324;6.862;2023-03-13T17:34:06;12.10;99.90
52867;DHT22;38739;53.324;6.862;2023-03-13T17:36:36;12.10;99.90
52867;DHT22;38739;53.324;6.862;2023-03-13T17:39:04;12.00;99.90
52867;DHT22;38739;53.324;6.862;2023-03-13T17:41:33;12.00;99.90
52867;DHT22;38739;53.324;6.862;2023-03-13T17:43:58;11.90;99.90
52867;DHT22;38739;53.324;6.862;2023-03-13T17:46:29;11.90;99.90
52867;DHT22;38739;53.324;6.862;2023-03-13T17:48:55;11.90;99.90
52867;DHT22;38739;53.324;6.862;2023-03-13T17:51:23;11.90;99.90
52867;DHT22;38739;53.324;6.862;2023-03-13T17:53:50;11.90;99.90
52867;DHT22;38739;53.324;6.862;2023-03-13T17:56:25;11.80;99.90
52867;DHT22;38739;53.324;6.862;2023-03-13T17:58:52;11.80;99.90
52867;DHT22;38739;53.324;6.862;2023-03-13T18:01:24;11.70;99.90